Time;durP1;ratioP1;P1;durP2;ratioP2;P2;SDS_P1;SDS_P2;PMS_P1;PMS_P2;Temp;Humidity;BMP_temperature;BMP_pressure;BME280_temperature;BME280_humidity;BME280_pressure;Samples;Min_cycle;Max_cycle;Signal;HPM_P1;HPM_P2
2022/01/05 00:02:21;;;;;;;3.35;0.10;;;21.50;48.90;;;;;;5041284;28;20040;-58
2022/01/05 00:04:48;;;;;;;1.95;0.20;;;21.50;48.90;;;;;;5039980;28;20037;-55
2022/01/05 00:07:15;;;;;;;0.95;0.10;;;21.50;49.00;;;;;;5044215;28;20045;-59
2022/01/05 00:09:43;;;;;;;0.32;0.10;;;21.40;49.00;;;;;;5041082;28;20044;-59
2022/01/05 00:12:11;;;;;;;0.93;0.13;;;21.40;49.10;;;;;;5042254;28;20631;-52
2022/01/05 00:14:38;;;;;;;1.42;0.55;;;21.40;49.10;;;;;;5037650;28;20041;-56
2022/01/05 00:17:05;;;;;;;0.90;0.10;;;21.30;49.00;;;;;;5044296;28;20132;-54
2022/01/05 00:19:34;;;;;;;1.10;0.15;;;21.40;49.00;;;;;;5038817;28;20517;-57
2022/01/05 00:22:01;;;;;;;1.75;0.10;;;21.30;49.10;;;;;;5043738;28;20028;-54
2022/01/05 00:24:28;;;;;;;7.10;0.30;;;21.30;49.10;;;;;;5042939;28;20045;-56
2022/01/05 00:26:56;;;;;;;1.52;0.30;;;21.30;49.20;;;;;;5043913;28;20041;-57
2022/01/05 00:29:23;;;;;;;1.35;0.10;;;21.20;49.70;;;;;;5037829;28;20053;-57
2022/01/05 00:31:51;;;;;;;3.50;0.10;;;21.20;49.20;;;;;;5040077;28;20053;-55
2022/01/05 00:34:18;;;;;;;0.73;0.10;;;21.20;49.30;;;;;;5042377;28;20418;-50
2022/01/05 00:36:45;;;;;;;0.60;0.10;;;21.20;49.30;;;;;;5041705;28;20124;-57
2022/01/05 00:39:12;;;;;;;1.73;0.17;;;21.10;49.20;;;;;;5039403;28;20037;-55
2022/01/05 00:41:39;;;;;;;3.63;0.10;;;21.10;49.20;;;;;;5039721;28;20049;-54
2022/01/05 00:44:07;;;;;;;3.10;0.20;;;21.10;49.30;;;;;;5042571;28;20064;-57
2022/01/05 00:46:35;;;;;;;2.78;0.38;;;21.10;49.40;;;;;;5041178;28;20433;-55
2022/01/05 00:49:02;;;;;;;0.65;0.00;;;21.10;49.50;;;;;;5041009;28;20047;-57
2022/01/05 00:51:29;;;;;;;1.85;0.10;;;21.10;49.50;;;;;;5042697;28;20375;-57
2022/01/05 00:53:56;;;;;;;0.75;0.10;;;21.00;49.30;;;;;;5038002;28;20041;-53
2022/01/05 00:56:23;;;;;;;4.05;0.10;;;21.00;49.30;;;;;;5044162;28;20416;-53
2022/01/05 00:58:50;;;;;;;0.90;0.10;;;21.00;49.20;;;;;;5037072;28;20037;-56
2022/01/05 01:01:18;;;;;;;1.92;0.30;;;21.00;49.10;;;;;;5039850;28;20068;-56
2022/01/05 01:03:45;;;;;;;2.75;0.10;;;21.00;49.10;;;;;;5045677;28;20037;-56
2022/01/05 01:06:12;;;;;;;0.98;0.10;;;21.00;49.00;;;;;;5041440;28;20048;-53
2022/01/05 01:08:39;;;;;;;4.47;0.28;;;21.00;49.00;;;;;;5045644;28;20573;-57
2022/01/05 01:11:07;;;;;;;2.38;0.47;;;21.00;49.00;;;;;;5034561;28;20052;-56
2022/01/05 01:13:34;;;;;;;3.22;0.10;;;21.00;49.00;;;;;;5042010;28;20038;-56
2022/01/05 01:16:01;;;;;;;3.15;0.65;;;20.90;48.90;;;;;;5037551;28;20426;-57
2022/01/05 01:18:29;;;;;;;3.03;0.13;;;20.90;49.00;;;;;;5044857;28;20043;-52
2022/01/05 01:20:56;;;;;;;3.72;0.20;;;20.90;49.00;;;;;;5041775;28;20552;-58
2022/01/05 01:23:24;;;;;;;1.05;0.10;;;20.90;49.60;;;;;;5043231;28;20045;-57
2022/01/05 01:25:52;;;;;;;1.42;0.20;;;20.90;49.50;;;;;;5045250;28;20040;-57
2022/01/05 01:28:20;;;;;;;1.30;0.10;;;20.90;49.40;;;;;;5041292;28;20041;-53
2022/01/05 01:30:47;;;;;;;0.10;0.10;;;20.90;49.30;;;;;;5041283;28;20053;-56
2022/01/05 01:33:14;;;;;;;2.67;0.35;;;20.90;49.20;;;;;;5041331;28;20134;-52
2022/01/05 01:35:42;;;;;;;0.80;0.00;;;20.90;49.50;;;;;;5040213;28;20363;-56
2022/01/05 01:38:09;;;;;;;1.27;0.10;;;20.90;50.10;;;;;;5036335;28;20033;-57
2022/01/05 01:40:36;;;;;;;1.48;0.17;;;20.80;49.80;;;;;;5035303;28;20380;-57
2022/01/05 01:43:03;;;;;;;1.98;0.20;;;20.80;49.80;;;;;;5043052;28;20095;-55
2022/01/05 01:45:30;;;;;;;0.95;0.10;;;20.80;49.70;;;;;;5041693;28;20045;-56
2022/01/05 01:47:57;;;;;;;2.45;0.68;;;20.80;49.60;;;;;;5039672;28;20116;-55
2022/01/05 01:50:24;;;;;;;1.23;0.10;;;20.80;49.60;;;;;;5045034;28;20036;-58
2022/01/05 01:52:53;;;;;;;0.32;0.10;;;20.80;49.50;;;;;;5036614;28;20076;-57
2022/01/05 01:55:20;;;;;;;4.47;0.30;;;20.80;49.60;;;;;;5041786;28;20036;-57
2022/01/05 01:57:48;;;;;;;1.65;0.13;;;20.80;49.60;;;;;;5037553;28;20131;-56
2022/01/05 02:00:15;;;;;;;2.25;0.47;;;20.70;49.60;;;;;;5042872;28;20041;-56
2022/01/05 02:02:44;;;;;;;1.92;0.10;;;20.70;49.60;;;;;;5039354;28;20088;-58
2022/01/05 02:05:12;;;;;;;1.10;0.10;;;20.70;49.50;;;;;;5044741;28;23558;-55
2022/01/05 02:07:39;;;;;;;2.63;0.10;;;20.70;49.50;;;;;;5044044;28;20245;-55
2022/01/05 02:10:10;;;;;;;2.10;0.20;;;20.70;49.50;;;;;;5038417;28;20045;-57
2022/01/05 02:12:37;;;;;;;0.20;0.10;;;20.70;49.40;;;;;;5040413;28;20048;-56
2022/01/05 02:15:06;;;;;;;1.77;0.20;;;20.70;49.40;;;;;;5041904;28;20124;-58
2022/01/05 02:17:45;;;;;;;0.95;0.10;;;20.70;49.50;;;;;;5037511;28;20033;-58
2022/01/05 02:20:15;;;;;;;0.95;0.10;;;20.70;49.50;;;;;;5041157;28;20041;-56
2022/01/05 02:22:43;;;;;;;3.25;0.10;;;20.70;49.40;;;;;;5043926;28;20045;-57
2022/01/05 02:25:10;;;;;;;2.53;0.20;;;20.70;49.40;;;;;;5043305;28;20061;-56
2022/01/05 02:27:40;;;;;;;2.30;0.17;;;20.60;49.40;;;;;;5040796;28;20068;-57
2022/01/05 02:30:09;;;;;;;0.13;0.10;;;20.60;49.40;;;;;;5039732;28;20041;-58
2022/01/05 02:32:36;;;;;;;0.10;0.10;;;20.70;49.40;;;;;;5043182;28;20437;-56
2022/01/05 02:35:03;;;;;;;1.98;0.10;;;20.60;49.20;;;;;;5036508;28;20417;-57
2022/01/05 02:37:30;;;;;;;3.28;0.10;;;20.70;49.40;;;;;;5042568;28;20727;-57
2022/01/05 02:39:59;;;;;;;3.20;0.20;;;20.60;49.40;;;;;;5047271;28;20051;-56
2022/01/05 02:42:27;;;;;;;0.68;0.10;;;20.60;49.20;;;;;;5042079;28;20068;-59
2022/01/05 02:44:54;;;;;;;0.68;0.25;;;20.60;49.20;;;;;;5035209;28;20065;-54
2022/01/05 02:47:22;;;;;;;1.17;0.10;;;20.60;49.00;;;;;;5033052;28;20417;-54
2022/01/05 02:49:49;;;;;;;0.40;0.00;;;20.60;49.00;;;;;;5041389;28;20041;-53
2022/01/05 02:52:16;;;;;;;1.05;0.10;;;20.60;48.90;;;;;;5038875;28;20052;-54
2022/01/05 02:54:43;;;;;;;2.38;0.10;;;20.60;49.00;;;;;;5039341;28;20055;-57
2022/01/05 02:57:11;;;;;;;0.35;0.00;;;20.60;49.00;;;;;;5039202;28;20087;-57
2022/01/05 02:59:38;;;;;;;0.20;0.10;;;20.60;48.90;;;;;;5037206;28;20050;-56
2022/01/05 03:02:05;;;;;;;1.27;0.10;;;20.60;48.90;;;;;;5039498;28;20053;-57
2022/01/05 03:04:32;;;;;;;1.95;0.10;;;20.60;48.80;;;;;;5044304;28;20119;-54
2022/01/05 03:06:59;;;;;;;1.02;0.10;;;20.50;48.70;;;;;;5041874;28;20049;-54
2022/01/05 03:09:27;;;;;;;1.02;0.10;;;20.50;48.70;;;;;;5041129;28;20064;-57
2022/01/05 03:11:54;;;;;;;1.27;0.17;;;20.50;48.60;;;;;;5036589;28;20041;-55
2022/01/05 03:14:23;;;;;;;0.85;0.10;;;20.50;48.60;;;;;;5032511;28;20041;-57
2022/01/05 03:16:50;;;;;;;2.15;0.30;;;20.50;48.70;;;;;;5032304;28;20045;-56
2022/01/05 03:19:17;;;;;;;1.17;0.10;;;20.50;48.60;;;;;;5044911;28;20075;-54
2022/01/05 03:21:44;;;;;;;1.20;0.32;;;20.50;48.60;;;;;;5042914;28;20071;-54
2022/01/05 03:24:11;;;;;;;0.60;0.10;;;20.40;48.50;;;;;;5038285;28;20631;-57
2022/01/05 03:26:38;;;;;;;1.35;0.20;;;20.40;48.60;;;;;;5039104;28;20051;-56
2022/01/05 03:29:05;;;;;;;0.25;0.15;;;20.40;48.60;;;;;;5040761;28;20033;-55
2022/01/05 03:31:33;;;;;;;3.13;0.50;;;20.40;48.90;;;;;;5040168;28;20049;-57
2022/01/05 03:34:00;;;;;;;0.68;0.10;;;20.40;49.00;;;;;;5037412;28;20556;-57
2022/01/05 03:36:28;;;;;;;2.13;0.43;;;20.40;49.00;;;;;;5036754;28;20037;-57
2022/01/05 03:38:55;;;;;;;1.20;0.68;;;20.40;49.20;;;;;;5039312;28;20695;-57
2022/01/05 03:41:22;;;;;;;2.58;0.20;;;20.40;49.60;;;;;;5035008;28;20055;-57
2022/01/05 03:43:48;;;;;;;1.25;0.20;;;20.40;49.70;;;;;;5034590;28;20413;-56
2022/01/05 03:46:16;;;;;;;1.88;0.10;;;20.40;49.60;;;;;;5045040;28;20567;-56
2022/01/05 03:48:44;;;;;;;0.90;0.10;;;20.40;49.50;;;;;;5038782;28;20041;-57
2022/01/05 03:51:11;;;;;;;1.10;0.10;;;20.40;49.60;;;;;;5042058;28;20041;-56
2022/01/05 03:53:38;;;;;;;2.47;0.10;;;20.40;49.60;;;;;;5035723;28;20516;-57
2022/01/05 03:56:05;;;;;;;1.10;0.32;;;20.40;49.70;;;;;;5040055;28;20128;-56
2022/01/05 03:58:32;;;;;;;0.70;0.10;;;20.40;49.70;;;;;;5035201;28;20037;-57
2022/01/05 04:00:59;;;;;;;3.30;0.82;;;20.40;49.70;;;;;;5044120;28;20454;-56
2022/01/05 04:03:26;;;;;;;0.63;0.22;;;20.40;49.80;;;;;;5039663;28;20036;-57
2022/01/05 04:05:55;;;;;;;0.30;0.10;;;20.40;49.90;;;;;;5039221;28;20055;-54
2022/01/05 04:08:22;;;;;;;0.77;0.10;;;20.40;50.00;;;;;;5037032;28;20037;-57
2022/01/05 04:10:49;;;;;;;1.40;0.10;;;20.40;50.00;;;;;;5037411;28;20080;-53
2022/01/05 04:13:16;;;;;;;0.75;0.10;;;20.40;49.80;;;;;;5042152;28;20083;-56
2022/01/05 04:15:43;;;;;;;0.82;0.10;;;20.40;49.70;;;;;;5036151;28;20457;-54
2022/01/05 04:18:11;;;;;;;2.78;0.28;;;20.40;49.60;;;;;;5041604;28;20044;-57
2022/01/05 04:20:38;;;;;;;1.15;0.20;;;20.40;49.50;;;;;;5034193;28;20064;-54
2022/01/05 04:23:06;;;;;;;1.25;0.10;;;20.40;49.60;;;;;;5042650;28;20041;-57
2022/01/05 04:25:33;;;;;;;0.85;0.20;;;20.30;49.50;;;;;;5045578;28;20037;-55
2022/01/05 04:28:01;;;;;;;1.20;0.08;;;20.30;49.40;;;;;;5043205;28;20045;-56
2022/01/05 04:30:28;;;;;;;0.43;0.20;;;20.30;49.40;;;;;;5037539;28;20041;-50
2022/01/05 04:32:55;;;;;;;0.60;0.10;;;20.30;49.90;;;;;;5042847;28;20124;-57
2022/01/05 04:35:22;;;;;;;1.48;0.10;;;20.30;49.20;;;;;;5032866;28;20889;-56
2022/01/05 04:37:50;;;;;;;0.82;0.47;;;20.30;49.10;;;;;;5037616;28;20041;-53
2022/01/05 04:40:18;;;;;;;0.10;0.00;;;20.30;49.10;;;;;;5034680;28;20047;-54
2022/01/05 04:42:45;;;;;;;1.25;0.28;;;20.30;49.00;;;;;;5041133;28;20148;-57
2022/01/05 04:45:12;;;;;;;0.32;0.13;;;20.30;49.00;;;;;;5045734;28;20700;-57
2022/01/05 04:47:39;;;;;;;2.47;0.13;;;20.30;49.00;;;;;;5043194;28;20048;-56
2022/01/05 04:50:07;;;;;;;2.55;0.10;;;20.30;49.20;;;;;;5047760;28;20497;-55
2022/01/05 04:52:34;;;;;;;0.63;0.10;;;20.30;49.00;;;;;;5040112;28;20405;-57
2022/01/05 04:55:01;;;;;;;2.00;0.73;;;20.30;48.90;;;;;;5043694;28;20442;-55
2022/01/05 04:57:30;;;;;;;1.35;0.15;;;20.30;48.80;;;;;;5027688;28;20029;-54
2022/01/05 04:59:57;;;;;;;0.75;0.10;;;20.30;48.70;;;;;;5045540;28;20413;-55
2022/01/05 05:02:24;;;;;;;1.02;0.20;;;20.20;48.90;;;;;;5043029;28;20443;-53
2022/01/05 05:04:50;;;;;;;2.53;0.75;;;20.20;48.90;;;;;;5033001;28;20052;-54
2022/01/05 05:07:18;;;;;;;0.95;0.10;;;20.20;48.80;;;;;;5037483;28;20044;-55
2022/01/05 05:09:45;;;;;;;1.05;0.10;;;20.20;48.70;;;;;;5041717;28;20057;-54
2022/01/05 05:12:12;;;;;;;0.40;0.10;;;20.30;48.80;;;;;;5043374;28;20073;-54
2022/01/05 05:14:40;;;;;;;2.40;0.20;;;20.20;48.80;;;;;;5045675;28;20421;-56
2022/01/05 05:17:07;;;;;;;3.70;0.20;;;20.20;48.80;;;;;;5038213;28;20048;-54
2022/01/05 05:19:34;;;;;;;0.52;0.10;;;20.20;48.80;;;;;;5039694;28;20045;-56
2022/01/05 05:22:01;;;;;;;0.65;0.10;;;20.30;48.80;;;;;;5041772;28;20044;-54
2022/01/05 05:24:28;;;;;;;0.68;0.10;;;20.20;48.70;;;;;;5043149;28;20037;-53
2022/01/05 05:26:55;;;;;;;0.85;0.10;;;20.20;48.70;;;;;;5039656;28;20041;-57
2022/01/05 05:29:22;;;;;;;0.75;0.10;;;20.20;48.70;;;;;;5042335;28;20144;-53
2022/01/05 05:31:51;;;;;;;1.42;0.47;;;20.20;48.60;;;;;;5042446;28;20391;-52
2022/01/05 05:34:18;;;;;;;1.13;0.13;;;20.20;48.50;;;;;;5042459;28;20520;-55
2022/01/05 05:36:45;;;;;;;0.75;0.10;;;20.20;49.10;;;;;;5039987;28;20091;-56
2022/01/05 05:39:12;;;;;;;0.45;0.10;;;20.20;48.50;;;;;;5041595;28;20776;-54
2022/01/05 05:41:39;;;;;;;0.65;0.47;;;20.20;48.40;;;;;;5039586;28;20029;-55
2022/01/05 05:44:06;;;;;;;2.75;0.30;;;20.20;48.30;;;;;;5039942;28;20228;-54
2022/01/05 05:46:34;;;;;;;0.30;0.10;;;20.20;48.30;;;;;;5058019;28;20030;-54
2022/01/05 05:49:02;;;;;;;0.20;0.10;;;20.20;48.30;;;;;;5043635;28;20045;-55
2022/01/05 05:51:29;;;;;;;2.50;0.70;;;20.10;48.20;;;;;;5042013;28;20049;-55
2022/01/05 05:53:56;;;;;;;0.63;0.10;;;20.10;48.10;;;;;;5040962;28;20043;-53
2022/01/05 05:56:23;;;;;;;2.03;0.13;;;20.20;48.10;;;;;;5040414;28;20064;-56
2022/01/05 05:58:50;;;;;;;1.75;0.10;;;20.10;48.00;;;;;;5041687;28;20406;-56
2022/01/05 06:01:17;;;;;;;2.22;0.63;;;20.20;48.10;;;;;;5038397;28;20454;-52
2022/01/05 06:03:45;;;;;;;1.80;0.43;;;20.20;48.10;;;;;;5044650;28;20048;-55
2022/01/05 06:06:13;;;;;;;0.20;0.10;;;20.10;48.00;;;;;;5041191;28;20037;-57
2022/01/05 06:08:40;;;;;;;2.38;0.10;;;20.20;48.00;;;;;;5042774;28;20041;-57
2022/01/05 06:11:08;;;;;;;0.57;0.20;;;20.10;48.40;;;;;;5040263;28;20045;-58
2022/01/05 06:13:35;;;;;;;0.50;0.10;;;20.10;48.10;;;;;;5040199;28;20505;-56
2022/01/05 06:16:02;;;;;;;1.05;0.10;;;20.10;48.00;;;;;;5040606;28;20637;-57
2022/01/05 06:18:29;;;;;;;1.17;0.22;;;20.10;48.00;;;;;;5041310;28;20045;-56
2022/01/05 06:20:56;;;;;;;0.50;0.47;;;20.10;47.90;;;;;;5040012;28;20041;-56
2022/01/05 06:23:24;;;;;;;3.40;0.10;;;20.10;47.90;;;;;;5038738;28;20059;-54
2022/01/05 06:25:51;;;;;;;2.28;0.10;;;20.10;47.80;;;;;;5039592;28;20048;-56
2022/01/05 06:28:19;;;;;;;0.80;0.32;;;20.10;47.80;;;;;;5046425;28;20032;-52
2022/01/05 06:30:46;;;;;;;1.15;0.10;;;20.10;47.80;;;;;;5039336;28;20545;-54
2022/01/05 06:33:13;;;;;;;2.10;0.10;;;20.10;47.90;;;;;;5039804;28;20127;-57
2022/01/05 06:35:40;;;;;;;1.75;0.20;;;20.10;47.90;;;;;;5040242;28;20055;-57
2022/01/05 06:38:07;;;;;;;1.10;0.47;;;20.10;47.90;;;;;;5040931;28;20421;-56
2022/01/05 06:40:36;;;;;;;1.30;0.10;;;20.10;47.80;;;;;;5035842;28;20087;-53
2022/01/05 06:43:04;;;;;;;3.03;0.32;;;20.10;47.80;;;;;;5038440;28;20064;-55
2022/01/05 06:45:31;;;;;;;0.57;0.28;;;20.10;47.80;;;;;;5037202;28;20059;-52
2022/01/05 06:47:59;;;;;;;1.05;0.10;;;20.10;47.60;;;;;;5041852;28;20043;-55
2022/01/05 06:50:26;;;;;;;0.68;0.10;;;20.10;47.60;;;;;;5043874;28;20045;-55
2022/01/05 06:52:55;;;;;;;1.95;0.10;;;20.10;47.50;;;;;;5038140;28;20045;-56
2022/01/05 06:55:22;;;;;;;0.77;0.10;;;20.10;47.60;;;;;;5047445;28;20049;-57
2022/01/05 06:57:51;;;;;;;0.50;0.15;;;20.00;47.60;;;;;;5038654;28;20041;-58
2022/01/05 07:00:20;;;;;;;3.58;0.17;;;20.10;47.60;;;;;;5039396;28;20144;-53
2022/01/05 07:02:47;;;;;;;0.30;0.10;;;20.10;47.60;;;;;;5037541;28;20037;-58
2022/01/05 07:05:14;;;;;;;2.53;0.30;;;20.10;47.60;;;;;;5034210;28;20045;-56
2022/01/05 07:07:41;;;;;;;1.67;0.30;;;20.00;47.50;;;;;;5037030;28;20045;-55
2022/01/05 07:10:10;;;;;;;1.67;0.38;;;20.00;47.50;;;;;;5036690;28;20049;-53
2022/01/05 07:12:38;;;;;;;0.17;0.10;;;20.10;47.50;;;;;;5038676;28;20079;-58
2022/01/05 07:15:08;;;;;;;0.30;0.30;;;20.00;47.40;;;;;;5043031;28;20041;-59
2022/01/05 07:17:35;;;;;;;0.35;0.10;;;20.10;47.40;;;;;;5035717;28;20414;-57
2022/01/05 07:20:03;;;;;;;0.35;0.10;;;20.10;47.40;;;;;;5041007;28;20452;-56
2022/01/05 07:22:31;;;;;;;2.42;1.75;;;20.10;47.30;;;;;;5043744;28;20140;-57
2022/01/05 07:24:58;;;;;;;0.70;0.10;;;20.00;47.30;;;;;;5040712;28;20033;-57
2022/01/05 07:27:26;;;;;;;1.02;0.10;;;20.00;47.20;;;;;;5042004;28;20033;-57
2022/01/05 07:29:54;;;;;;;0.65;0.10;;;20.00;47.20;;;;;;5042875;28;20055;-57
2022/01/05 07:32:22;;;;;;;0.35;0.28;;;20.00;47.20;;;;;;5031635;28;20501;-57
2022/01/05 07:34:49;;;;;;;1.70;0.10;;;20.00;47.20;;;;;;5035953;28;20045;-54
2022/01/05 07:37:17;;;;;;;0.50;0.10;;;20.00;47.10;;;;;;5042603;28;20064;-57
2022/01/05 07:39:44;;;;;;;0.40;0.10;;;20.00;47.20;;;;;;5041233;28;20752;-56
2022/01/05 07:42:11;;;;;;;1.77;0.20;;;20.00;47.10;;;;;;5039410;28;20045;-57
2022/01/05 07:44:39;;;;;;;1.55;0.10;;;20.00;47.10;;;;;;5035172;28;20678;-61
2022/01/05 07:47:07;;;;;;;2.25;0.52;;;20.00;47.40;;;;;;5033304;28;20136;-58
2022/01/05 07:49:37;;;;;;;2.25;0.10;;;20.00;48.00;;;;;;5031714;28;20065;-54
2022/01/05 07:52:05;;;;;;;1.67;0.40;;;20.00;48.60;;;;;;5030778;28;20568;-62
2022/01/05 07:54:34;;;;;;;2.17;0.10;;;20.00;48.90;;;;;;5030550;28;20512;-58
2022/01/05 07:57:01;;;;;;;3.20;0.25;;;19.90;49.40;;;;;;5035565;28;20060;-48
2022/01/05 07:59:28;;;;;;;2.67;0.10;;;19.80;49.80;;;;;;5035387;28;20033;-47
2022/01/05 08:01:55;;;;;;;0.90;0.10;;;19.70;49.90;;;;;;5035071;28;20056;-47
2022/01/05 08:04:22;;;;;;;1.27;0.20;;;19.60;49.90;;;;;;5028662;28;20505;-45
2022/01/05 08:06:51;;;;;;;5.15;1.23;;;19.60;50.20;;;;;;5039332;28;20126;-43
2022/01/05 08:09:18;;;;;;;5.57;0.30;;;19.50;51.30;;;;;;5037528;28;20691;-44
2022/01/05 08:11:45;;;;;;;1.35;0.43;;;19.40;52.20;;;;;;5038320;28;20052;-46
2022/01/05 08:14:13;;;;;;;3.08;0.20;;;19.40;52.60;;;;;;5030816;28;20064;-42
2022/01/05 08:16:40;;;;;;;5.25;0.55;;;19.30;52.80;;;;;;5033133;28;20663;-48
2022/01/05 08:19:07;;;;;;;4.38;0.68;;;19.30;53.30;;;;;;5031886;28;20136;-49
2022/01/05 08:21:34;;;;;;;12.90;0.30;;;19.30;53.40;;;;;;5046533;28;20028;-47
2022/01/05 08:24:03;;;;;;;3.40;0.47;;;19.20;53.50;;;;;;5042259;28;20037;-53
2022/01/05 08:26:30;;;;;;;2.45;0.20;;;19.10;53.50;;;;;;5037218;28;20064;-47
2022/01/05 08:28:57;;;;;;;6.60;0.32;;;19.10;53.60;;;;;;5033444;28;20072;-52
2022/01/05 08:31:25;;;;;;;6.57;0.50;;;19.00;53.60;;;;;;5033814;28;20573;-50
2022/01/05 08:33:56;;;;;;;10.40;0.35;;;19.00;53.60;;;;;;5043112;28;20063;-52
2022/01/05 08:36:24;;;;;;;9.00;0.47;;;18.90;53.60;;;;;;5036834;28;20505;-48
2022/01/05 08:38:51;;;;;;;4.15;0.25;;;18.90;53.60;;;;;;5036696;28;20094;-47
2022/01/05 08:41:19;;;;;;;4.00;0.20;;;18.90;53.70;;;;;;5035932;28;20493;-46
2022/01/05 08:43:47;;;;;;;5.97;0.68;;;18.80;53.60;;;;;;5046605;28;20466;-51
2022/01/05 08:46:14;;;;;;;8.10;0.40;;;18.80;53.70;;;;;;5033472;28;20046;-53
2022/01/05 08:48:43;;;;;;;4.75;0.75;;;18.80;53.70;;;;;;5042058;28;20067;-50
2022/01/05 08:51:10;;;;;;;3.40;0.20;;;18.70;53.60;;;;;;5034725;28;20696;-48
2022/01/05 08:53:37;;;;;;;3.25;0.30;;;18.70;53.60;;;;;;5033940;28;20446;-47
2022/01/05 08:56:05;;;;;;;2.85;0.40;;;18.70;53.60;;;;;;5034103;28;20485;-49
2022/01/05 08:58:34;;;;;;;11.20;0.20;;;18.70;53.60;;;;;;5035061;28;20049;-49
2022/01/05 09:01:01;;;;;;;1.83;0.22;;;18.70;53.60;;;;;;5035381;28;20052;-49
2022/01/05 09:03:28;;;;;;;5.13;0.40;;;18.60;53.50;;;;;;5036260;28;20474;-49
2022/01/05 09:05:55;;;;;;;2.92;0.10;;;18.60;53.60;;;;;;5038131;28;20067;-48
2022/01/05 09:08:22;;;;;;;2.78;0.65;;;18.60;53.50;;;;;;5035433;28;20044;-49
2022/01/05 09:10:49;;;;;;;4.82;0.32;;;18.50;53.50;;;;;;5031160;28;20041;-49
2022/01/05 09:13:17;;;;;;;0.68;0.25;;;18.50;53.40;;;;;;5034477;28;20042;-47
2022/01/05 09:15:45;;;;;;;8.05;0.35;;;18.50;53.40;;;;;;5040846;28;20045;-47
2022/01/05 09:18:15;;;;;;;0.70;0.20;;;18.50;53.30;;;;;;5038565;28;20120;-46
2022/01/05 09:20:42;;;;;;;4.40;0.20;;;18.50;53.30;;;;;;5035178;28;20057;-51
2022/01/05 09:23:09;;;;;;;3.50;0.15;;;18.50;53.30;;;;;;5034617;28;20044;-52
2022/01/05 09:25:36;;;;;;;3.25;0.68;;;18.50;53.30;;;;;;5037249;28;20041;-49
2022/01/05 09:28:03;;;;;;;1.95;0.20;;;18.50;53.30;;;;;;5035714;28;20559;-50
2022/01/05 09:30:31;;;;;;;2.05;0.10;;;18.50;53.20;;;;;;5039952;28;20045;-52
2022/01/05 09:32:59;;;;;;;2.58;0.10;;;18.50;53.20;;;;;;5037743;28;20045;-53
2022/01/05 09:35:27;;;;;;;3.65;0.10;;;18.50;53.20;;;;;;5030218;28;20073;-50
2022/01/05 09:38:07;;;;;;;3.03;0.25;;;18.50;53.30;;;;;;5033244;28;20045;-47
2022/01/05 09:43:19;;;;;;;6.28;0.20;;;18.40;53.00;;;;;;5033707;28;20574;-52
2022/01/05 09:45:54;;;;;;;5.78;0.57;;;18.40;52.90;;;;;;5043353;28;20053;-49
2022/01/05 09:48:37;;;;;;;2.22;0.30;;;18.50;53.00;;;;;;5039513;28;20123;-50
2022/01/05 09:51:12;;;;;;;1.75;0.20;;;18.50;53.00;;;;;;5034953;28;20068;-48
2022/01/05 09:53:39;;;;;;;0.90;0.10;;;18.50;52.90;;;;;;5033681;28;20099;-53
2022/01/05 09:56:07;;;;;;;1.00;0.20;;;18.50;52.80;;;;;;5033399;28;20497;-52
2022/01/05 09:58:35;;;;;;;3.00;0.10;;;18.50;52.80;;;;;;5045095;28;20057;-45
2022/01/05 10:01:03;;;;;;;1.75;0.20;;;18.50;52.70;;;;;;5034746;28;20410;-50
2022/01/05 10:03:31;;;;;;;2.10;0.20;;;18.50;52.60;;;;;;5036451;28;20639;-49
2022/01/05 10:06:00;;;;;;;2.08;0.10;;;18.50;52.50;;;;;;5037951;28;20040;-50
2022/01/05 10:08:27;;;;;;;2.03;0.20;;;18.50;52.40;;;;;;5035529;28;20076;-47
2022/01/05 10:10:54;;;;;;;1.27;0.17;;;18.50;52.40;;;;;;5032173;28;20584;-48
2022/01/05 10:13:22;;;;;;;1.85;0.43;;;18.60;52.40;;;;;;5033587;28;20128;-47
2022/01/05 10:15:50;;;;;;;2.10;0.35;;;18.60;52.20;;;;;;5034373;28;20103;-46
2022/01/05 10:18:18;;;;;;;2.67;0.20;;;18.60;52.20;;;;;;5034309;28;20048;-46
2022/01/05 10:21:00;;;;;;;1.33;0.10;;;18.60;52.10;;;;;;5034731;28;20064;-47
2022/01/05 10:23:35;;;;;;;11.70;0.30;;;18.70;52.00;;;;;;5032643;28;20072;-45
2022/01/05 10:26:30;;;;;;;0.23;0.17;;;18.70;52.00;;;;;;5036087;28;20099;-51
2022/01/05 10:28:59;;;;;;;1.45;0.10;;;18.70;51.80;;;;;;5030757;28;20036;-48
2022/01/05 10:31:28;;;;;;;2.28;0.30;;;18.70;51.80;;;;;;5039141;28;20409;-46
2022/01/05 10:33:56;;;;;;;0.40;0.10;;;18.70;51.80;;;;;;5033353;28;20042;-44
2022/01/05 10:36:25;;;;;;;3.97;0.80;;;18.70;51.60;;;;;;5032949;28;20402;-50
2022/01/05 10:38:57;;;;;;;2.67;0.30;;;18.80;51.50;;;;;;5036726;28;20051;-49
2022/01/05 10:41:28;;;;;;;3.47;0.10;;;18.80;51.40;;;;;;5034653;28;20517;-48
2022/01/05 10:44:23;;;;;;;6.80;0.28;;;18.80;51.30;;;;;;5029634;28;20068;-48
2022/01/05 10:46:51;;;;;;;1.55;0.38;;;18.90;51.10;;;;;;4964139;28;20047;-49
2022/01/05 10:49:28;;;;;;;1.52;0.40;;;18.90;51.10;;;;;;4962297;28;20043;-44
2022/01/05 10:51:58;;;;;;;4.45;0.30;;;18.90;51.00;;;;;;4963817;28;20062;-44
2022/01/05 10:54:29;;;;;;;1.17;0.20;;;19.00;51.00;;;;;;4962803;28;20057;-47
2022/01/05 10:57:07;;;;;;;0.40;0.13;;;19.00;50.90;;;;;;4963277;28;20038;-45
2022/01/05 10:59:37;;;;;;;1.60;0.20;;;19.10;50.70;;;;;;4959368;28;20115;-46
2022/01/05 11:02:21;;;;;;;0.90;0.10;;;19.10;50.60;;;;;;4963739;28;20049;-47
2022/01/05 11:04:48;;;;;;;0.60;0.10;;;19.10;50.30;;;;;;4959328;28;20046;-45
2022/01/05 11:07:22;;;;;;;5.88;0.30;;;19.10;50.40;;;;;;4960721;28;20046;-49
2022/01/05 11:09:55;;;;;;;0.93;0.10;;;19.20;50.30;;;;;;4963753;28;20859;-46
2022/01/05 11:12:31;;;;;;;0.73;0.10;;;19.20;50.20;;;;;;4963350;28;20615;-48
2022/01/05 11:15:13;;;;;;;;;;;19.30;50.20;;;;;;4959536;28;20070;-49
2022/01/05 11:17:40;;;;;;;1.55;0.20;;;19.20;50.10;;;;;;4958458;28;20508;-49
2022/01/05 11:20:11;;;;;;;1.92;0.20;;;19.30;50.20;;;;;;4961266;28;20045;-49
2022/01/05 11:22:40;;;;;;;1.08;0.15;;;19.30;50.00;;;;;;4999466;28;20045;-49
2022/01/05 11:25:08;;;;;;;1.75;0.20;;;19.40;49.80;;;;;;5044556;28;20048;-47
2022/01/05 11:27:35;;;;;;;1.92;0.10;;;19.50;49.60;;;;;;5034834;28;20541;-49
2022/01/05 11:30:04;;;;;;;1.25;0.35;;;19.60;49.50;;;;;;5040024;28;20147;-47
2022/01/05 11:32:34;;;;;;;1.30;0.20;;;19.60;49.30;;;;;;5033511;28;20047;-44
2022/01/05 11:35:05;;;;;;;2.03;0.10;;;19.70;49.20;;;;;;5042016;28;20041;-51
2022/01/05 11:37:32;;;;;;;2.83;0.38;;;19.80;49.00;;;;;;5032331;28;20457;-48
2022/01/05 11:40:06;;;;;;;2.90;0.10;;;19.80;48.80;;;;;;5039035;28;20056;-49
2022/01/05 11:42:36;;;;;;;0.65;0.10;;;19.90;48.60;;;;;;5034591;28;20061;-51
2022/01/05 11:45:06;;;;;;;0.63;0.10;;;20.00;48.50;;;;;;5035005;28;20851;-46
2022/01/05 11:47:37;;;;;;;1.65;0.35;;;20.00;48.30;;;;;;5034380;28;20033;-50
2022/01/05 11:50:24;;;;;;;0.63;0.38;;;20.10;48.20;;;;;;5043765;28;20041;-49
2022/01/05 11:52:55;;;;;;;3.35;0.10;;;20.10;48.00;;;;;;5028969;28;20051;-49
2022/01/05 11:55:24;;;;;;;2.92;1.15;;;20.10;47.90;;;;;;5035954;28;20045;-49
2022/01/05 11:58:14;;;;;;;0.55;0.20;;;20.20;47.80;;;;;;5036218;28;20136;-51
2022/01/05 12:00:42;;;;;;;0.90;0.45;;;20.30;47.70;;;;;;5036354;28;20121;-46
2022/01/05 12:03:09;;;;;;;2.20;0.10;;;20.30;47.70;;;;;;5040820;28;20037;-46
2022/01/05 12:06:06;;;;;;;0.70;0.17;;;20.30;47.50;;;;;;5034950;28;20053;-49
2022/01/05 12:08:43;;;;;;;2.13;1.02;;;20.30;47.30;;;;;;5032354;28;20045;-50
2022/01/05 12:11:30;;;;;;;1.45;0.20;;;20.40;47.30;;;;;;5035413;28;20041;-51
2022/01/05 12:13:58;;;;;;;2.00;0.20;;;20.40;47.20;;;;;;5036643;28;20086;-52
2022/01/05 12:16:26;;;;;;;2.40;0.10;;;20.40;47.20;;;;;;5034170;28;20053;-48
2022/01/05 12:19:05;;;;;;;2.00;0.43;;;20.50;47.00;;;;;;5038488;28;20051;-49
2022/01/05 12:21:43;;;;;;;0.68;0.10;;;20.50;47.50;;;;;;5042077;28;20042;-48
2022/01/05 12:24:11;;;;;;;4.57;0.30;;;20.60;46.80;;;;;;5037582;28;20597;-51
2022/01/05 12:26:39;;;;;;;1.65;0.40;;;20.60;46.80;;;;;;5035810;28;20072;-52
2022/01/05 12:29:07;;;;;;;1.15;0.10;;;20.60;46.70;;;;;;5035842;28;20620;-50
2022/01/05 12:31:55;;;;;;;0.82;0.10;;;20.60;46.60;;;;;;5038257;28;20042;-52
2022/01/05 12:34:52;;;;;;;1.35;0.28;;;20.70;46.50;;;;;;5034958;28;20387;-50
2022/01/05 12:37:39;;;;;;;0.90;0.10;;;20.70;46.40;;;;;;5032360;28;20502;-46
2022/01/05 12:40:32;;;;;;;0.60;0.20;;;20.70;46.40;;;;;;5034243;28;20060;-51
2022/01/05 12:43:31;;;;;;;0.77;0.10;;;20.80;46.40;;;;;;5045064;28;20060;-48
2022/01/05 12:46:00;;;;;;;0.77;0.10;;;20.80;46.40;;;;;;5039195;28;20045;-50
2022/01/05 12:48:58;;;;;;;0.52;0.03;;;20.80;46.30;;;;;;5034540;28;20056;-48
2022/01/05 12:52:02;;;;;;;0.28;0.10;;;20.80;46.80;;;;;;5035402;28;20037;-50
2022/01/05 12:54:32;;;;;;;1.75;0.30;;;20.80;46.10;;;;;;5039546;28;20064;-48
2022/01/05 12:57:01;;;;;;;1.55;0.10;;;20.80;46.10;;;;;;5036074;28;20526;-48
2022/01/05 12:59:32;;;;;;;0.82;0.10;;;20.90;46.10;;;;;;5033301;28;20392;-50
2022/01/05 13:02:02;;;;;;;1.10;1.00;;;20.90;46.00;;;;;;5034795;28;20040;-48